createdAt,value
2022-11-10T00:01:32.772Z,3.22
2022-11-10T00:06:55.727Z,3.35
2022-11-10T00:12:17.281Z,2.40
2022-11-10T00:17:38.732Z,2.83
2022-11-10T00:23:01.633Z,2.85
2022-11-10T00:28:22.809Z,2.33
2022-11-10T00:33:45.301Z,2.33
2022-11-10T00:39:08.639Z,2.50
2022-11-10T00:44:30.066Z,3.00
2022-11-10T00:49:51.489Z,2.53
2022-11-10T00:55:14.417Z,2.30
2022-11-10T01:00:35.923Z,2.35
2022-11-10T01:05:57.433Z,3.05
2022-11-10T01:11:23.919Z,3.22
2022-11-10T01:16:45.369Z,3.13
2022-11-10T01:22:06.692Z,2.33
2022-11-10T01:27:29.558Z,2.80
2022-11-10T01:32:50.980Z,2.60
2022-11-10T01:38:12.243Z,2.35
2022-11-10T01:43:35.435Z,2.88
2022-11-10T01:49:00.772Z,2.70
2022-11-10T01:54:26.225Z,2.30
2022-11-10T01:59:50.546Z,2.33
2022-11-10T02:05:11.799Z,2.75
2022-11-10T02:10:33.474Z,2.40
2022-11-10T02:15:56.523Z,2.28
2022-11-10T02:21:20.379Z,2.45
2022-11-10T02:26:46.431Z,2.72
2022-11-10T02:32:07.704Z,3.03
2022-11-10T02:37:30.534Z,2.00
2022-11-10T02:42:51.831Z,3.40
2022-11-10T02:48:15.182Z,2.58
2022-11-10T02:53:38.070Z,2.38
2022-11-10T02:58:59.683Z,3.72
2022-11-10T03:04:21.235Z,3.38
2022-11-10T03:09:44.232Z,2.83
2022-11-10T03:15:06.224Z,2.80
2022-11-10T03:20:27.750Z,2.45
2022-11-10T03:25:50.929Z,2.65
2022-11-10T03:31:12.300Z,3.78
2022-11-10T03:36:33.798Z,2.85
2022-11-10T03:41:56.748Z,3.92
2022-11-10T03:47:18.177Z,3.35
2022-11-10T03:52:40.595Z,3.05
2022-11-10T03:58:04.658Z,3.90
2022-11-10T04:03:26.445Z,2.60
2022-11-10T04:08:59.990Z,3.30
2022-11-10T04:26:56.772Z,5.78
2022-11-10T04:32:19.550Z,3.90
2022-11-10T04:37:40.965Z,5.18
2022-11-10T04:43:02.538Z,3.38
2022-11-10T04:48:25.659Z,3.28
2022-11-10T04:53:47.233Z,3.90
2022-11-10T04:59:08.805Z,2.75
2022-11-10T05:04:31.669Z,6.30
2022-11-10T05:09:52.990Z,3.35
2022-11-10T05:15:14.503Z,2.85
2022-11-10T05:20:37.620Z,3.28
2022-11-10T05:25:58.788Z,3.33
2022-11-10T05:31:20.385Z,2.88
2022-11-10T05:36:43.272Z,3.63
2022-11-10T05:42:05.486Z,4.13
2022-11-10T05:47:26.790Z,3.38
2022-11-10T05:52:50.997Z,3.53
2022-11-10T05:58:12.519Z,4.15
2022-11-10T06:03:33.807Z,3.55
2022-11-10T06:08:56.635Z,3.85
2022-11-10T06:14:18.104Z,5.15
2022-11-10T06:19:39.523Z,4.95
2022-11-10T06:25:02.534Z,9.55
2022-11-10T06:30:24.339Z,7.18
2022-11-10T06:35:46.458Z,4.43
2022-11-10T06:41:09.727Z,6.22
2022-11-10T06:46:31.160Z,6.88
2022-11-10T06:51:53.082Z,8.27
2022-11-10T06:57:15.989Z,6.60
2022-11-10T07:02:37.553Z,9.75
2022-11-10T07:08:03.736Z,6.18
2022-11-10T07:13:26.398Z,5.72
2022-11-10T07:18:48.574Z,6.53
2022-11-10T07:24:10.444Z,6.53
2022-11-10T07:29:33.011Z,4.78
2022-11-10T07:34:54.273Z,3.92
2022-11-10T07:40:16.246Z,4.05
2022-11-10T07:45:39.231Z,3.78
2022-11-10T07:51:00.781Z,3.60
2022-11-10T07:56:22.285Z,3.63
2022-11-10T08:01:46.697Z,3.33
2022-11-10T08:07:09.523Z,4.20
2022-11-10T08:12:33.654Z,5.05
2022-11-10T08:18:04.978Z,4.40
2022-11-10T08:23:26.581Z,2.80
2022-11-10T08:28:48.121Z,3.28
2022-11-10T08:34:11.128Z,3.42
2022-11-10T08:39:39.808Z,3.38
2022-11-10T08:45:01.426Z,3.08
2022-11-10T08:50:24.508Z,3.40
2022-11-10T08:55:47.268Z,3.10
2022-11-10T09:01:10.122Z,3.45
2022-11-10T09:06:32.799Z,3.25
2022-11-10T09:11:54.841Z,3.95
2022-11-10T09:17:16.170Z,3.00
2022-11-10T09:22:39.780Z,3.53
2022-11-10T09:28:01.558Z,3.92
2022-11-10T09:33:22.950Z,3.67
2022-11-10T09:38:46.802Z,3.78
2022-11-10T09:44:17.566Z,3.20
2022-11-10T09:49:46.070Z,4.97
2022-11-10T09:55:22.356Z,3.25
2022-11-10T10:00:51.459Z,3.57
2022-11-10T10:06:15.037Z,3.42
2022-11-10T10:11:49.315Z,3.80
2022-11-10T10:17:26.180Z,3.00
2022-11-10T10:23:02.229Z,3.35
2022-11-10T10:28:33.173Z,3.10
2022-11-10T10:33:55.809Z,3.88
2022-11-10T10:39:23.808Z,3.15
2022-11-10T10:45:21.006Z,3.03
2022-11-10T10:50:44.358Z,2.60
2022-11-10T10:56:18.086Z,3.22
2022-11-10T11:01:44.506Z,2.83
2022-11-10T11:07:20.235Z,2.83
2022-11-10T11:12:41.833Z,2.73
2022-11-10T11:18:13.368Z,3.38
2022-11-10T11:23:48.680Z,2.50
2022-11-10T11:29:23.982Z,2.30
2022-11-10T11:34:57.293Z,2.75
2022-11-10T11:40:28.949Z,2.60
2022-11-10T11:45:58.405Z,3.17
2022-11-10T11:51:29.038Z,2.97
2022-11-10T11:56:51.692Z,2.60
2022-11-10T12:02:31.438Z,3.15
2022-11-10T12:08:02.942Z,5.20
2022-11-10T12:13:38.462Z,2.47
2022-11-10T12:19:14.625Z,2.90
2022-11-10T12:25:01.794Z,2.70
2022-11-10T12:30:23.667Z,2.83
2022-11-10T12:35:47.752Z,2.60
2022-11-10T12:41:14.452Z,2.78
2022-11-10T12:46:36.227Z,1.77
2022-11-10T12:52:04.786Z,2.30
2022-11-10T12:57:29.949Z,2.90
2022-11-10T13:02:56.548Z,2.55
2022-11-10T13:08:27.833Z,2.25
2022-11-10T13:13:59.570Z,2.05
2022-11-10T13:19:50.817Z,2.03
2022-11-10T13:25:52.369Z,2.25
2022-11-10T13:31:54.916Z,2.17
2022-11-10T13:37:46.380Z,2.30
2022-11-10T13:43:29.164Z,3.42
2022-11-10T13:49:23.613Z,2.83
2022-11-10T13:55:16.217Z,3.97
2022-11-10T14:00:39.082Z,4.05
2022-11-10T14:06:07.540Z,2.70
2022-11-10T14:11:35.971Z,2.13
2022-11-10T14:16:57.881Z,3.30
2022-11-10T14:22:28.559Z,3.50
2022-11-10T14:27:55.185Z,2.17
2022-11-10T14:33:19.270Z,3.03
2022-11-10T14:38:45.910Z,3.70
2022-11-10T14:44:15.365Z,4.32
2022-11-10T14:49:36.845Z,3.20
2022-11-10T14:54:59.861Z,4.65
2022-11-10T15:00:28.259Z,2.92
2022-11-10T15:05:50.101Z,5.00
2022-11-10T15:11:35.280Z,4.97
2022-11-10T15:17:03.500Z,3.42
2022-11-10T15:22:30.646Z,2.90
2022-11-10T15:28:01.479Z,8.67
2022-11-10T15:33:28.771Z,5.55
2022-11-10T15:39:03.174Z,3.78
2022-11-10T15:44:27.987Z,13.25
2022-11-10T15:49:49.321Z,7.32
2022-11-10T15:55:20.540Z,8.50
2022-11-10T16:00:43.286Z,5.35
2022-11-10T16:06:04.786Z,10.63
2022-11-10T16:11:26.202Z,10.63
2022-11-10T16:16:49.030Z,9.38
2022-11-10T16:22:11.776Z,5.47
2022-11-10T16:27:33.874Z,7.45
2022-11-10T16:32:56.703Z,4.90
2022-11-10T16:38:21.092Z,4.20
2022-11-10T16:43:42.813Z,4.93
2022-11-10T16:49:08.281Z,3.42
2022-11-10T16:54:29.492Z,6.80
2022-11-10T16:59:50.947Z,6.55
2022-11-10T17:05:16.007Z,5.82
2022-11-10T17:10:37.517Z,7.20
2022-11-10T17:16:04.264Z,12.70
2022-11-10T17:21:32.706Z,11.10
2022-11-10T17:26:55.362Z,8.98
2022-11-10T17:32:16.876Z,4.90
2022-11-10T17:37:40.250Z,5.97
2022-11-10T17:43:01.786Z,6.28
2022-11-10T17:48:24.156Z,6.95
2022-11-10T17:53:46.889Z,6.78
2022-11-10T17:59:08.252Z,11.02
2022-11-10T18:04:29.380Z,8.13
2022-11-10T18:09:52.314Z,8.07
2022-11-10T18:15:14.750Z,7.13
2022-11-10T18:20:36.855Z,6.20
2022-11-10T18:26:04.712Z,6.70
2022-11-10T18:31:26.161Z,9.20
2022-11-10T18:36:47.705Z,7.60
2022-11-10T18:42:10.815Z,8.73
2022-11-10T18:47:32.264Z,8.95
2022-11-10T18:52:53.851Z,8.23
2022-11-10T18:58:16.496Z,5.78
2022-11-10T19:03:38.617Z,6.13
2022-11-10T19:09:00.215Z,6.88
2022-11-10T19:14:23.311Z,6.65
2022-11-10T19:19:44.718Z,6.38
2022-11-10T19:25:08.666Z,6.53
2022-11-10T19:30:32.145Z,6.10
2022-11-10T19:35:53.724Z,6.63
2022-11-10T19:41:17.358Z,7.63
2022-11-10T19:46:40.090Z,9.73
2022-11-10T19:52:01.523Z,7.30
2022-11-10T19:57:23.521Z,6.60
2022-11-10T20:02:46.294Z,10.30
2022-11-10T20:08:15.452Z,11.07
2022-11-10T20:13:37.348Z,11.88
2022-11-10T20:19:00.552Z,10.63
2022-11-10T20:24:21.992Z,9.90
2022-11-10T20:29:44.007Z,9.02
2022-11-10T20:35:07.578Z,8.98
2022-11-10T20:40:44.096Z,9.48
2022-11-10T20:46:08.251Z,9.82
2022-11-10T20:51:31.225Z,8.52
2022-11-10T20:56:52.450Z,8.95
2022-11-10T21:02:14.298Z,14.02
2022-11-10T21:07:36.930Z,12.52
2022-11-10T21:12:58.529Z,12.38
2022-11-10T21:18:20.677Z,9.18
2022-11-10T21:23:43.175Z,8.82
2022-11-10T21:29:06.301Z,8.23
2022-11-10T21:34:27.746Z,10.93
2022-11-10T21:39:50.870Z,9.38
2022-11-10T21:45:12.735Z,11.85
2022-11-10T21:50:33.950Z,11.63
2022-11-10T21:55:59.947Z,10.48
2022-11-10T22:01:22.304Z,11.10
2022-11-10T22:07:01.521Z,9.00
2022-11-10T22:12:41.838Z,9.68
2022-11-10T22:18:20.696Z,9.20
2022-11-10T22:23:59.989Z,8.40
2022-11-10T22:29:26.091Z,7.57
2022-11-10T22:34:50.190Z,7.90
2022-11-10T22:40:30.462Z,8.45
2022-11-10T22:45:53.480Z,7.50
2022-11-10T22:51:14.721Z,7.72
2022-11-10T22:56:36.322Z,7.85
2022-11-10T23:01:59.040Z,7.57
2022-11-10T23:07:20.552Z,9.70
2022-11-10T23:12:41.990Z,10.20
2022-11-10T23:18:06.820Z,9.40
2022-11-10T23:23:29.434Z,9.15
2022-11-10T23:28:52.938Z,8.05
2022-11-10T23:34:15.717Z,11.50
2022-11-10T23:39:37.205Z,7.03
2022-11-10T23:44:58.820Z,7.40
2022-11-10T23:50:21.668Z,8.27
2022-11-10T23:55:43.229Z,6.68
